Time;durP1;ratioP1;P1;durP2;ratioP2;P2;SDS_P1;SDS_P2;PMS_P1;PMS_P2;Temp;Humidity;BMP_temperature;BMP_pressure;BME280_temperature;BME280_humidity;BME280_pressure;Samples;Min_cycle;Max_cycle;Signal;HPM_P1;HPM_P2
2024/01/11 00:00:16;;;;;;;46.73;20.67;;;-5.20;9.10;;;;;;5017610;28;20172;-79
2024/01/11 00:02:42;;;;;;;53.78;23.08;;;-5.20;9.00;;;;;;5035793;28;20159;-78
2024/01/11 00:05:08;;;;;;;43.57;20.03;;;-5.20;7.60;;;;;;5035809;28;20526;-79
2024/01/11 00:07:34;;;;;;;49.00;20.98;;;-5.20;11.10;;;;;;5017454;28;20687;-80
2024/01/11 00:10:01;;;;;;;53.35;22.42;;;-5.20;11.70;;;;;;5017700;28;20171;-79
2024/01/11 00:12:27;;;;;;;50.25;24.80;;;-5.10;14.20;;;;;;5035060;28;20159;-80
2024/01/11 00:14:53;;;;;;;53.43;20.60;;;-5.20;5.80;;;;;;5035540;28;20175;-80
2024/01/11 00:17:18;;;;;;;43.57;19.80;;;-5.30;6.70;;;;;;5017693;28;20191;-80
2024/01/11 00:19:44;;;;;;;53.53;24.17;;;-5.20;12.70;;;;;;5017531;28;20173;-79
2024/01/11 00:22:10;;;;;;;53.07;22.10;;;-5.20;12.70;;;;;;5035444;28;20234;-80
2024/01/11 00:24:35;;;;;;;53.67;21.57;;;-5.20;8.60;;;;;;5034932;28;20202;-78
2024/01/11 00:27:01;;;;;;;55.77;24.40;;;-5.30;6.00;;;;;;5034595;28;20676;-81
2024/01/11 00:29:28;;;;;;;52.20;23.20;;;-5.30;5.70;;;;;;5017337;28;20203;-78
2024/01/11 00:31:54;;;;;;;57.63;24.35;;;-5.20;8.70;;;;;;5035413;28;20162;-79
2024/01/11 00:34:21;;;;;;;50.40;21.83;;;-5.30;7.10;;;;;;5017645;28;20168;-79
2024/01/11 00:36:47;;;;;;;60.08;23.08;;;-5.30;10.10;;;;;;5017259;28;20183;-80
2024/01/11 00:39:12;;;;;;;53.80;23.30;;;-5.30;8.00;;;;;;5035292;28;20163;-81
2024/01/11 00:41:38;;;;;;;59.87;24.27;;;-5.30;5.70;;;;;;5034779;28;20250;-78
2024/01/11 00:44:04;;;;;;;58.27;24.70;;;-5.30;6.50;;;;;;5017051;28;20182;-78
2024/01/11 00:46:29;;;;;;;54.20;23.57;;;-5.30;11.10;;;;;;5034700;28;20680;-78
2024/01/11 00:48:55;;;;;;;63.93;25.80;;;-5.30;13.20;;;;;;5035601;28;20198;-78
2024/01/11 00:51:20;;;;;;;61.23;25.00;;;-5.40;14.60;;;;;;5034634;28;20166;-80
2024/01/11 00:53:46;;;;;;;63.97;27.77;;;-5.40;13.00;;;;;;5034917;28;20193;-78
2024/01/11 00:56:19;;;;;;;60.77;23.67;;;-5.40;14.30;;;;;;5034895;28;20266;-80
2024/01/11 00:58:45;;;;;;;58.80;26.25;;;-5.40;14.00;;;;;;5034660;28;20277;-80
2024/01/11 01:01:11;;;;;;;58.67;26.27;;;-5.40;17.50;;;;;;5037118;28;20218;-80
2024/01/11 01:03:37;;;;;;;57.78;23.45;;;-5.40;20.70;;;;;;5039051;28;20528;-80
2024/01/11 01:06:03;;;;;;;61.22;26.88;;;-5.40;19.50;;;;;;5038721;28;20187;-80
2024/01/11 01:08:29;;;;;;;61.65;25.90;;;-5.40;14.40;;;;;;5038901;28;20217;-78
2024/01/11 01:10:55;;;;;;;60.83;23.90;;;-5.50;15.40;;;;;;5020953;28;20185;-80
2024/01/11 01:13:21;;;;;;;55.63;23.47;;;-5.50;15.50;;;;;;5038571;28;20221;-80
2024/01/11 01:15:47;;;;;;;49.42;23.30;;;-5.50;18.80;;;;;;5038675;28;20640;-79
2024/01/11 01:18:12;;;;;;;57.43;24.50;;;-5.50;15.80;;;;;;5038909;28;20187;-79
2024/01/11 01:20:38;;;;;;;51.93;22.60;;;-5.60;15.10;;;;;;5020824;28;20406;-79
2024/01/11 01:23:04;;;;;;;53.93;24.90;;;-5.60;18.60;;;;;;5038499;28;20181;-79
2024/01/11 01:25:29;;;;;;;49.80;23.30;;;-5.50;24.00;;;;;;5020854;28;20179;-78
2024/01/11 01:27:55;;;;;;;57.30;22.27;;;-5.50;24.80;;;;;;5038185;28;20591;-78
2024/01/11 01:30:23;;;;;;;65.20;24.63;;;-5.50;22.30;;;;;;5038303;28;20204;-78
2024/01/11 01:32:48;;;;;;;54.08;24.80;;;-5.60;18.70;;;;;;5038420;28;20308;-78
2024/01/11 01:35:14;;;;;;;57.10;22.37;;;-5.50;21.90;;;;;;5038605;28;20198;-78
2024/01/11 01:37:40;;;;;;;44.40;22.00;;;-5.50;14.80;;;;;;5038115;28;20204;-78
2024/01/11 01:40:07;;;;;;;56.00;22.80;;;-5.50;12.90;;;;;;5038247;28;20406;-79
2024/01/11 01:42:33;;;;;;;51.38;23.52;;;-5.60;11.40;;;;;;5038276;28;20162;-78
2024/01/11 01:44:59;;;;;;;61.75;24.90;;;-5.60;11.40;;;;;;5038143;28;20175;-78
2024/01/11 01:47:25;;;;;;;52.67;21.40;;;-5.70;12.70;;;;;;5037858;28;20189;-78
2024/01/11 01:49:52;;;;;;;52.08;22.27;;;-5.70;15.80;;;;;;5038002;28;20164;-78
2024/01/11 01:52:19;;;;;;;46.88;21.92;;;-5.70;15.50;;;;;;5038020;28;20164;-80
2024/01/11 01:54:44;;;;;;;47.30;23.50;;;-5.50;18.90;;;;;;5038016;28;20224;-80
2024/01/11 01:57:12;;;;;;;57.47;23.40;;;-5.50;8.90;;;;;;5020546;28;20195;-80
2024/01/11 01:59:39;;;;;;;63.20;23.35;;;-5.50;8.90;;;;;;5038119;28;20462;-79
2024/01/11 02:02:07;;;;;;;58.70;23.48;;;-5.60;10.00;;;;;;5038064;28;20163;-78
2024/01/11 02:04:33;;;;;;;50.65;21.92;;;-5.60;9.50;;;;;;5037925;28;20529;-79
2024/01/11 02:06:59;;;;;;;50.80;22.83;;;-5.60;11.00;;;;;;5019881;28;20673;-79
2024/01/11 02:09:25;;;;;;;50.50;23.30;;;-5.60;13.20;;;;;;5037798;28;20225;-80
2024/01/11 02:11:54;;;;;;;49.22;21.70;;;-5.60;13.10;;;;;;5036794;28;20230;-78
2024/01/11 02:14:20;;;;;;;43.80;20.52;;;-5.70;10.90;;;;;;5038806;28;20184;-78
2024/01/11 02:16:46;;;;;;;52.47;22.07;;;-5.80;12.40;;;;;;5019974;28;20188;-79
2024/01/11 02:19:18;;;;;;;56.50;22.02;;;-5.80;16.00;;;;;;5037751;28;20171;-78
2024/01/11 02:21:46;;;;;;;54.88;20.48;;;-5.70;18.70;;;;;;5019656;28;20221;-79
2024/01/11 02:24:13;;;;;;;46.50;19.58;;;-5.70;15.00;;;;;;5037140;28;20169;-78
2024/01/11 02:27:01;;;;;;;50.13;21.17;;;-5.70;14.40;;;;;;5037034;28;20202;-80
2024/01/11 02:29:27;;;;;;;49.10;20.80;;;-5.70;14.50;;;;;;5019829;28;20190;-78
2024/01/11 02:31:55;;;;;;;51.28;19.83;;;-5.70;13.70;;;;;;5019553;28;20193;-80
2024/01/11 02:34:21;;;;;;;52.83;22.15;;;-5.70;15.00;;;;;;5020065;28;20540;-79
2024/01/11 02:36:47;;;;;;;49.63;20.88;;;-5.70;14.40;;;;;;5037249;28;20190;-78
2024/01/11 02:39:15;;;;;;;53.10;20.47;;;-5.70;11.70;;;;;;5037330;28;20213;-78
2024/01/11 02:41:42;;;;;;;42.72;19.50;;;-5.70;9.40;;;;;;5037030;28;20170;-80
2024/01/11 02:44:07;;;;;;;49.40;19.40;;;-5.80;11.30;;;;;;5036753;28;20158;-79
2024/01/11 02:46:33;;;;;;;44.70;18.90;;;-5.80;13.70;;;;;;5036931;28;20198;-79
2024/01/11 02:48:59;;;;;;;46.60;18.83;;;-5.80;16.60;;;;;;5037134;28;20198;-80
2024/01/11 02:51:24;;;;;;;51.67;19.37;;;-5.80;13.40;;;;;;5036819;28;20164;-80
2024/01/11 02:53:50;;;;;;;53.10;20.10;;;-5.70;14.60;;;;;;5036932;28;20531;-80
2024/01/11 02:56:16;;;;;;;43.43;20.23;;;-5.80;14.30;;;;;;5037473;28;20722;-79
2024/01/11 02:58:42;;;;;;;44.65;18.75;;;-5.70;20.60;;;;;;5036887;28;20190;-80
2024/01/11 03:01:07;;;;;;;47.50;19.30;;;-5.70;20.50;;;;;;5036687;28;20174;-80
2024/01/11 03:03:33;;;;;;;46.30;18.90;;;-5.70;23.00;;;;;;5036902;28;20172;-79
2024/01/11 03:05:58;;;;;;;48.73;19.60;;;-5.60;21.80;;;;;;5037117;28;20544;-78
2024/01/11 03:08:24;;;;;;;46.73;19.20;;;-5.60;15.30;;;;;;5018899;28;20191;-80
2024/01/11 03:10:50;;;;;;;45.67;18.77;;;-5.80;11.90;;;;;;5018996;28;20246;-79
2024/01/11 03:13:15;;;;;;;43.90;18.53;;;-5.80;18.70;;;;;;5036898;28;20159;-80
2024/01/11 03:15:41;;;;;;;40.43;18.40;;;-5.70;21.00;;;;;;5036537;28;20174;-79
2024/01/11 03:18:07;;;;;;;43.63;18.97;;;-5.80;19.60;;;;;;5036961;28;20168;-79
2024/01/11 03:20:32;;;;;;;39.13;17.40;;;-5.80;17.90;;;;;;5036503;28;20175;-79
2024/01/11 03:22:58;;;;;;;45.00;17.87;;;-5.80;19.20;;;;;;5018529;28;20198;-78
2024/01/11 03:25:24;;;;;;;43.23;17.10;;;-5.80;17.70;;;;;;5035311;28;20170;-81
2024/01/11 03:27:49;;;;;;;36.10;16.47;;;-5.70;20.50;;;;;;5036105;28;20553;-78
2024/01/11 03:30:16;;;;;;;51.80;18.83;;;-5.70;14.60;;;;;;5036204;28;20220;-79
2024/01/11 03:32:44;;;;;;;45.58;17.80;;;-5.80;11.00;;;;;;5018039;28;20173;-79
2024/01/11 03:35:10;;;;;;;48.67;20.42;;;-5.80;11.90;;;;;;5036396;28;20163;-78
2024/01/11 03:37:36;;;;;;;49.80;18.47;;;-5.90;9.00;;;;;;5036166;28;20195;-78
2024/01/11 03:40:02;;;;;;;48.50;17.97;;;-5.90;11.80;;;;;;5036010;28;20166;-78
2024/01/11 03:42:28;;;;;;;48.38;21.25;;;-6.00;11.90;;;;;;5018092;28;20587;-78
2024/01/11 03:44:55;;;;;;;49.40;19.40;;;-5.90;16.80;;;;;;5035707;28;20235;-79
2024/01/11 03:47:20;;;;;;;43.92;17.83;;;-5.90;17.80;;;;;;5035864;28;20182;-80
2024/01/11 03:49:46;;;;;;;43.33;19.40;;;-5.90;23.10;;;;;;5036242;28;20242;-80
2024/01/11 03:52:12;;;;;;;50.13;19.83;;;-5.80;24.90;;;;;;5036434;28;20163;-79
2024/01/11 03:54:37;;;;;;;44.23;18.00;;;-5.60;28.10;;;;;;5035854;28;20178;-78
2024/01/11 03:57:03;;;;;;;49.43;20.63;;;-5.40;29.20;;;;;;5018090;28;20564;-78
2024/01/11 03:59:29;;;;;;;42.63;20.60;;;-5.40;28.10;;;;;;5035922;28;20195;-78
2024/01/11 04:01:57;;;;;;;46.00;17.37;;;-5.40;26.00;;;;;;5017862;28;20414;-79
2024/01/11 04:04:23;;;;;;;46.78;19.75;;;-5.50;20.40;;;;;;5035731;28;20171;-80
2024/01/11 04:06:51;;;;;;;48.90;20.10;;;-5.50;17.50;;;;;;5035520;28;20679;-78
2024/01/11 04:09:17;;;;;;;43.80;19.75;;;-5.50;18.50;;;;;;5034922;28;20544;-78
2024/01/11 04:11:42;;;;;;;37.80;18.33;;;-5.50;16.90;;;;;;5035127;28;20190;-80
2024/01/11 04:14:08;;;;;;;47.27;20.47;;;-5.60;14.10;;;;;;5035522;28;20174;-79
2024/01/11 04:16:34;;;;;;;44.57;19.30;;;-5.60;15.50;;;;;;5035363;28;20190;-79
2024/01/11 04:19:00;;;;;;;46.50;19.30;;;-5.60;15.70;;;;;;5035430;28;20176;-79
2024/01/11 04:21:30;;;;;;;52.88;20.65;;;-5.50;15.30;;;;;;5017386;28;20171;-79
2024/01/11 04:23:56;;;;;;;45.10;18.35;;;-5.40;12.80;;;;;;5035143;28;20170;-80
2024/01/11 04:26:22;;;;;;;44.80;20.60;;;-5.40;11.00;;;;;;5035118;28;20679;-80
2024/01/11 04:28:49;;;;;;;45.93;18.70;;;-5.50;7.60;;;;;;5034965;28;20190;-80
2024/01/11 04:31:16;;;;;;;57.08;23.00;;;-5.60;7.20;;;;;;5035207;28;20409;-80
2024/01/11 04:33:45;;;;;;;40.85;18.00;;;-5.60;6.10;;;;;;5017262;28;20537;-80
2024/01/11 04:36:12;;;;;;;46.47;18.58;;;-5.60;9.80;;;;;;5034791;28;20193;-80
2024/01/11 04:38:38;;;;;;;48.42;21.40;;;-5.70;5.40;;;;;;5035222;28;20167;-78
2024/01/11 04:41:14;;;;;;;52.22;20.15;;;-5.80;6.60;;;;;;5034975;28;20181;-79
2024/01/11 04:43:44;;;;;;;39.70;17.77;;;-5.70;15.10;;;;;;5034718;28;20172;-80
2024/01/11 04:46:21;;;;;;;47.78;18.67;;;-5.90;6.80;;;;;;5034879;28;20183;-80
2024/01/11 04:48:48;;;;;;;53.33;21.65;;;-5.80;7.00;;;;;;5016971;28;20190;-78
2024/01/11 04:51:15;;;;;;;47.65;19.45;;;-5.90;5.80;;;;;;5034938;28;20250;-79
2024/01/11 04:53:42;;;;;;;51.00;19.92;;;-6.00;7.80;;;;;;5034683;28;20524;-80
2024/01/11 04:56:08;;;;;;;47.30;20.10;;;-6.00;10.20;;;;;;5035079;28;20553;-78
2024/01/11 04:58:35;;;;;;;45.53;18.25;;;-5.90;7.20;;;;;;5034656;28;20172;-78
2024/01/11 05:01:00;;;;;;;48.03;20.20;;;-6.00;6.20;;;;;;5035138;28;20509;-78
2024/01/11 05:03:28;;;;;;;44.60;20.57;;;-6.00;7.50;;;;;;5034506;28;20304;-78
2024/01/11 05:05:53;;;;;;;50.95;20.35;;;-6.00;9.80;;;;;;5016891;28;20175;-79
2024/01/11 05:08:19;;;;;;;47.97;18.93;;;-6.00;6.20;;;;;;5016901;28;20207;-79
2024/01/11 05:10:45;;;;;;;47.47;18.10;;;-5.90;6.90;;;;;;5035210;28;20174;-79
2024/01/11 05:13:10;;;;;;;48.23;21.23;;;-6.10;5.60;;;;;;5034677;28;20163;-78
2024/01/11 05:15:36;;;;;;;44.37;19.07;;;-6.10;6.90;;;;;;5034660;28;20163;-80
2024/01/11 05:18:02;;;;;;;46.30;17.50;;;-6.10;9.50;;;;;;5034737;28;20571;-79
2024/01/11 05:20:27;;;;;;;42.43;19.33;;;-6.10;9.50;;;;;;5016562;28;20260;-78
2024/01/11 05:22:54;;;;;;;49.23;19.57;;;-6.20;7.60;;;;;;5016981;28;20231;-79
2024/01/11 05:25:20;;;;;;;48.25;18.55;;;-6.20;9.00;;;;;;5016414;28;20174;-81
2024/01/11 05:27:45;;;;;;;42.53;18.80;;;-6.20;14.40;;;;;;5034414;28;20208;-80
2024/01/11 05:30:11;;;;;;;54.50;22.00;;;-6.10;15.90;;;;;;5016671;28;20407;-80
2024/01/11 05:32:37;;;;;;;45.10;19.80;;;-6.20;8.20;;;;;;5034218;28;20178;-80
2024/01/11 05:35:02;;;;;;;45.20;18.77;;;-6.20;8.10;;;;;;5034823;28;20402;-80
2024/01/11 05:37:28;;;;;;;43.40;19.27;;;-6.30;9.30;;;;;;5034602;28;20634;-80
2024/01/11 05:39:56;;;;;;;42.27;18.20;;;-6.30;10.10;;;;;;5034710;28;20442;-80
2024/01/11 05:42:23;;;;;;;51.72;19.98;;;-6.30;11.60;;;;;;5034895;28;20163;-80
2024/01/11 05:44:48;;;;;;;42.28;17.77;;;-6.30;9.80;;;;;;5016975;28;20640;-78
2024/01/11 05:47:14;;;;;;;45.27;17.10;;;-6.30;12.00;;;;;;5017380;28;20191;-78
2024/01/11 05:49:40;;;;;;;45.40;19.70;;;-6.40;7.20;;;;;;5020446;28;20643;-80
2024/01/11 05:52:06;;;;;;;48.72;18.67;;;-6.40;10.80;;;;;;5020106;28;20180;-80
2024/01/11 05:54:31;;;;;;;44.27;19.67;;;-6.40;11.50;;;;;;5038408;28;20215;-79
2024/01/11 05:56:58;;;;;;;48.10;19.33;;;-6.50;11.90;;;;;;5020491;28;20192;-79
2024/01/11 05:59:24;;;;;;;45.35;19.17;;;-6.40;18.70;;;;;;5020112;28;20171;-79
2024/01/11 06:01:50;;;;;;;52.30;20.53;;;-6.30;12.40;;;;;;5037989;28;20212;-78
2024/01/11 06:04:16;;;;;;;46.37;20.00;;;-6.40;11.30;;;;;;5038018;28;20421;-79
2024/01/11 06:06:42;;;;;;;49.10;18.47;;;-6.30;8.20;;;;;;5037952;28;20437;-79
2024/01/11 06:09:08;;;;;;;45.10;19.55;;;-6.30;10.80;;;;;;5037835;28;20970;-80
2024/01/11 06:11:35;;;;;;;45.53;18.52;;;-6.30;10.90;;;;;;5020565;28;20170;-79
2024/01/11 06:14:01;;;;;;;45.60;18.10;;;-6.40;6.40;;;;;;5020345;28;20170;-80
2024/01/11 06:16:27;;;;;;;43.13;17.00;;;-6.50;2.70;;;;;;5037727;28;20194;-78
2024/01/11 06:18:52;;;;;;;47.43;18.33;;;-6.50;7.50;;;;;;5020179;28;20796;-79
2024/01/11 06:21:18;;;;;;;46.27;18.70;;;-6.50;9.30;;;;;;5019983;28;20173;-79
2024/01/11 06:23:44;;;;;;;44.70;17.67;;;-6.50;9.70;;;;;;5037811;28;20163;-80
2024/01/11 06:26:10;;;;;;;45.60;17.00;;;-6.40;14.00;;;;;;5037725;28;20264;-80
2024/01/11 06:28:35;;;;;;;47.03;18.27;;;-6.40;5.30;;;;;;5019742;28;20461;-80
2024/01/11 06:31:01;;;;;;;50.43;16.37;;;-6.50;4.70;;;;;;5037873;28;20193;-81
2024/01/11 06:33:28;;;;;;;52.80;17.60;;;-6.40;6.60;;;;;;5020681;28;20170;-80
2024/01/11 06:35:53;;;;;;;42.15;18.20;;;-6.50;4.00;;;;;;5037439;28;20410;-81
2024/01/11 06:38:19;;;;;;;44.40;18.70;;;-6.50;7.40;;;;;;5020144;28;20170;-80
2024/01/11 06:40:45;;;;;;;44.40;18.90;;;-6.50;6.60;;;;;;5037508;28;20169;-78
2024/01/11 06:43:11;;;;;;;47.93;19.67;;;-6.50;8.50;;;;;;5019480;28;20252;-80
2024/01/11 06:45:37;;;;;;;52.78;20.13;;;-6.50;5.70;;;;;;5037425;28;20554;-80
2024/01/11 06:48:03;;;;;;;50.67;19.50;;;-6.50;4.10;;;;;;5037772;28;20192;-80
2024/01/11 06:50:28;;;;;;;57.28;21.30;;;-6.50;3.10;;;;;;5037362;28;20769;-80
2024/01/11 06:52:54;;;;;;;44.30;18.43;;;-6.50;4.90;;;;;;5035705;28;20166;-80
2024/01/11 06:55:20;;;;;;;45.87;16.70;;;-6.40;5.20;;;;;;5037004;28;20767;-80
2024/01/11 06:57:48;;;;;;;45.93;19.07;;;-6.40;2.50;;;;;;5019436;28;20256;-80
2024/01/11 07:00:14;;;;;;;41.28;17.80;;;-6.50;2.10;;;;;;5037491;28;20186;-80
2024/01/11 07:02:40;;;;;;;45.77;18.37;;;-6.50;1.70;;;;;;5038016;28;20172;-80
2024/01/11 07:05:06;;;;;;;51.83;18.30;;;-6.50;1.10;;;;;;5039035;28;20193;-80
2024/01/11 07:07:32;;;;;;;44.33;17.45;;;-6.50;2.30;;;;;;5039057;28;20425;-80
2024/01/11 07:09:58;;;;;;;42.50;17.83;;;-6.70;1.00;;;;;;5020912;28;20171;-80
2024/01/11 07:12:25;;;;;;;47.15;17.52;;;-6.70;1.00;;;;;;5038661;28;20201;-80
2024/01/11 07:14:51;;;;;;;44.08;15.93;;;-6.80;2.00;;;;;;5038443;28;20163;-80
2024/01/11 07:17:17;;;;;;;43.25;19.02;;;-6.70;6.80;;;;;;5037917;28;20205;-80
2024/01/11 07:19:43;;;;;;;50.72;19.40;;;-6.70;4.80;;;;;;5038579;28;20228;-80
2024/01/11 07:22:08;;;;;;;53.43;20.43;;;-6.70;12.20;;;;;;5038954;28;20170;-80
2024/01/11 07:24:37;;;;;;;44.43;18.10;;;-6.60;10.90;;;;;;5037898;28;20226;-80
2024/01/11 07:27:06;;;;;;;43.45;18.25;;;-6.60;12.30;;;;;;5037548;28;20230;-80
2024/01/11 07:29:33;;;;;;;51.75;19.80;;;-6.70;4.70;;;;;;5037219;28;20186;-81
2024/01/11 07:31:59;;;;;;;52.50;20.20;;;-6.70;4.60;;;;;;5019231;28;20178;-81
2024/01/11 07:34:25;;;;;;;49.85;19.95;;;-6.70;6.70;;;;;;5037076;28;20216;-80
2024/01/11 07:36:52;;;;;;;48.20;19.60;;;-6.60;7.80;;;;;;5037074;28;20186;-81
2024/01/11 07:39:18;;;;;;;44.80;19.73;;;-6.50;7.90;;;;;;5037058;28;20270;-81
2024/01/11 07:41:43;;;;;;;41.80;16.30;;;-6.40;3.70;;;;;;5019186;28;20195;-81
2024/01/11 07:44:09;;;;;;;47.27;20.10;;;-6.50;1.00;;;;;;5018949;28;20413;-81
2024/01/11 07:46:36;;;;;;;45.13;19.10;;;-6.50;1.00;;;;;;5036269;28;20189;-80
2024/01/11 07:49:04;;;;;;;45.33;18.30;;;-6.50;1.00;;;;;;5018873;28;20199;-83
2024/01/11 07:51:30;;;;;;;45.55;19.58;;;-6.60;1.00;;;;;;5036557;28;20513;-82
2024/01/11 07:53:56;;;;;;;42.30;19.33;;;-6.70;1.00;;;;;;5036421;28;20169;-81
2024/01/11 07:56:22;;;;;;;44.27;18.93;;;-6.60;6.10;;;;;;5036256;28;20420;-81
2024/01/11 07:58:48;;;;;;;63.53;21.58;;;-6.50;9.50;;;;;;5018445;28;20209;-81
2024/01/11 08:01:15;;;;;;;50.23;20.67;;;-6.40;13.20;;;;;;5035863;28;20201;-81
2024/01/11 08:03:41;;;;;;;55.97;18.30;;;-6.30;9.50;;;;;;5036090;28;20397;-81
2024/01/11 08:06:07;;;;;;;41.53;19.67;;;-6.20;14.80;;;;;;5036155;28;20652;-80
2024/01/11 08:08:34;;;;;;;57.42;20.23;;;-6.10;18.80;;;;;;5036074;28;20819;-81
2024/01/11 08:10:59;;;;;;;50.40;20.60;;;-6.10;18.20;;;;;;5035329;28;20567;-81
2024/01/11 08:13:25;;;;;;;39.93;16.60;;;-6.10;15.20;;;;;;5017552;28;20221;-82
2024/01/11 08:15:51;;;;;;;46.67;21.27;;;-6.10;17.70;;;;;;5035610;28;20536;-81
2024/01/11 08:18:19;;;;;;;44.40;19.77;;;-6.20;10.80;;;;;;5035511;28;20294;-82
2024/01/11 08:20:44;;;;;;;45.10;19.85;;;-6.20;11.70;;;;;;5035454;28;20163;-81
2024/01/11 08:23:10;;;;;;;46.57;20.43;;;-6.20;14.00;;;;;;5035771;28;20648;-80
2024/01/11 08:25:36;;;;;;;45.77;19.80;;;-6.20;15.80;;;;;;5035258;28;20232;-81
2024/01/11 08:28:02;;;;;;;48.93;21.93;;;-6.20;14.00;;;;;;5034931;28;20663;-81
2024/01/11 08:30:28;;;;;;;49.55;21.60;;;-6.10;13.80;;;;;;5017751;28;20602;-81
2024/01/11 08:32:55;;;;;;;52.57;19.20;;;-6.10;12.90;;;;;;5017874;28;20194;-80
2024/01/11 08:35:21;;;;;;;51.83;23.42;;;-6.00;15.00;;;;;;5035843;28;20431;-81
2024/01/11 08:37:47;;;;;;;47.50;21.50;;;-6.00;15.20;;;;;;5017529;28;20623;-80
2024/01/11 08:40:12;;;;;;;63.50;23.23;;;-5.90;17.20;;;;;;5035416;28;20184;-80
2024/01/11 08:42:39;;;;;;;49.40;22.30;;;-5.90;19.60;;;;;;5017304;28;20174;-81
2024/01/11 08:45:07;;;;;;;49.88;24.05;;;-5.90;19.90;;;;;;5035175;28;20650;-81
2024/01/11 08:47:33;;;;;;;49.97;19.67;;;-5.80;21.90;;;;;;5016892;28;20221;-80
2024/01/11 08:49:59;;;;;;;60.47;21.40;;;-5.70;22.90;;;;;;5017317;28;20259;-81
2024/01/11 08:52:25;;;;;;;51.27;21.30;;;-5.60;23.60;;;;;;5034888;28;20205;-80
2024/01/11 08:54:50;;;;;;;62.20;22.80;;;-5.60;24.60;;;;;;5017216;28;20167;-80
2024/01/11 08:57:17;;;;;;;47.30;21.43;;;-5.50;28.50;;;;;;5034787;28;20177;-80
2024/01/11 08:59:42;;;;;;;48.55;23.23;;;-5.40;29.00;;;;;;5035461;28;20628;-81
2024/01/11 09:02:08;;;;;;;53.73;23.50;;;-5.40;31.10;;;;;;5017577;28;20188;-79
2024/01/11 09:04:34;;;;;;;59.03;22.93;;;-5.40;34.60;;;;;;5017272;28;20265;-81
2024/01/11 09:07:00;;;;;;;53.70;22.50;;;-5.30;36.90;;;;;;5016988;28;20432;-79
2024/01/11 09:09:25;;;;;;;61.13;23.40;;;-5.30;37.30;;;;;;5034681;28;20460;-81
2024/01/11 09:11:51;;;;;;;58.60;24.37;;;-5.20;40.90;;;;;;5035319;28;20259;-80
2024/01/11 09:14:17;;;;;;;56.83;22.03;;;-5.20;45.00;;;;;;5017085;28;20175;-80
2024/01/11 09:16:44;;;;;;;49.60;23.37;;;-5.10;47.90;;;;;;5034762;28;20425;-81
2024/01/11 09:19:10;;;;;;;62.05;23.23;;;-5.10;50.70;;;;;;5016976;28;20269;-80
2024/01/11 09:21:36;;;;;;;50.80;23.00;;;-5.10;51.40;;;;;;5034874;28;20222;-81
2024/01/11 09:24:05;;;;;;;50.55;23.35;;;-5.00;56.80;;;;;;5039104;28;20759;-81
2024/01/11 09:26:30;;;;;;;54.40;21.23;;;-5.00;60.70;;;;;;5038400;28;20198;-80
2024/01/11 09:28:56;;;;;;;49.03;22.43;;;-4.90;65.00;;;;;;5020619;28;20255;-81
2024/01/11 09:31:22;;;;;;;59.23;24.87;;;-4.90;70.00;;;;;;5038816;28;20166;-81
2024/01/11 09:33:49;;;;;;;57.77;24.00;;;-4.80;72.20;;;;;;5021069;28;20170;-80
2024/01/11 09:36:15;;;;;;;52.90;24.23;;;-4.80;75.10;;;;;;5038136;28;20263;-80
2024/01/11 09:38:41;;;;;;;55.70;25.97;;;-4.70;76.80;;;;;;5038241;28;20167;-81
2024/01/11 09:41:08;;;;;;;74.68;26.25;;;-4.60;81.10;;;;;;5038473;28;20253;-81
2024/01/11 09:43:35;;;;;;;62.08;24.58;;;-4.50;74.30;;;;;;5038876;28;20168;-81
2024/01/11 09:46:05;;;;;;;50.40;23.60;;;-4.50;68.10;;;;;;5021212;28;20565;-81
2024/01/11 09:48:35;;;;;;;58.15;25.30;;;-4.40;66.00;;;;;;5038861;28;20238;-82
2024/01/11 09:51:13;;;;;;;59.28;24.15;;;-4.40;71.30;;;;;;5038507;28;20533;-81
2024/01/11 09:53:39;;;;;;;57.90;24.63;;;-4.30;71.50;;;;;;5038504;28;20143;-81
2024/01/11 09:56:09;;;;;;;66.45;26.90;;;-4.20;74.50;;;;;;5020624;28;20187;-80
2024/01/11 09:58:39;;;;;;;61.38;24.23;;;-4.10;74.80;;;;;;5038391;28;20580;-80
2024/01/11 10:01:12;;;;;;;69.97;31.05;;;-4.10;66.40;;;;;;5038015;28;20207;-80
2024/01/11 10:03:41;;;;;;;63.65;25.90;;;-4.00;61.80;;;;;;5020417;28;20527;-81
2024/01/11 10:06:09;;;;;;;58.97;24.80;;;-4.00;62.50;;;;;;5019983;28;20649;-81
2024/01/11 10:08:35;;;;;;;58.17;26.33;;;-4.00;60.90;;;;;;5037645;28;20698;-81
2024/01/11 10:11:00;;;;;;;58.67;26.30;;;-3.90;64.40;;;;;;5037664;28;20172;-81
2024/01/11 10:13:31;;;;;;;72.53;28.60;;;-3.80;66.30;;;;;;5037777;28;20502;-79
2024/01/11 10:16:13;;;;;;;58.88;25.77;;;-3.70;62.80;;;;;;5037829;28;20197;-81
2024/01/11 10:18:39;;;;;;;58.42;26.10;;;-3.60;61.70;;;;;;5037510;28;20169;-81
2024/01/11 10:21:05;;;;;;;52.45;24.35;;;-3.60;57.80;;;;;;5019766;28;20175;-79
2024/01/11 10:23:34;;;;;;;66.88;27.15;;;-3.50;53.00;;;;;;5019534;28;20173;-80
2024/01/11 10:26:00;;;;;;;58.92;27.17;;;-3.50;52.40;;;;;;5037428;28;20300;-81
2024/01/11 10:28:26;;;;;;;64.53;26.80;;;-3.40;54.40;;;;;;5037422;28;20216;-80
2024/01/11 10:30:53;;;;;;;57.63;26.73;;;-3.40;47.70;;;;;;5037766;28;20167;-80
2024/01/11 10:33:22;;;;;;;63.15;28.42;;;-3.30;45.10;;;;;;5019808;28;20262;-81
2024/01/11 10:35:49;;;;;;;76.63;27.88;;;-3.20;47.30;;;;;;5020181;28;20203;-82
2024/01/11 10:38:16;;;;;;;61.15;26.42;;;-3.20;45.00;;;;;;5037628;28;20176;-82
2024/01/11 10:40:42;;;;;;;71.03;27.70;;;-3.10;43.80;;;;;;5020237;28;20180;-81
2024/01/11 10:43:13;;;;;;;58.65;26.90;;;-3.00;46.00;;;;;;5038039;28;20169;-82
2024/01/11 10:45:39;;;;;;;62.10;25.67;;;-3.00;37.60;;;;;;5019753;28;20260;-82
2024/01/11 10:48:15;;;;;;;59.73;25.53;;;-2.90;34.80;;;;;;5037890;28;20271;-82
2024/01/11 10:50:46;;;;;;;60.28;26.73;;;-3.00;32.60;;;;;;5037916;28;20471;-81
2024/01/11 10:53:33;;;;;;;65.18;27.23;;;-2.90;32.60;;;;;;5037665;28;20156;-81
2024/01/11 10:56:00;;;;;;;66.60;27.38;;;-2.80;33.00;;;;;;5037689;28;20178;-81
2024/01/11 10:58:27;;;;;;;52.30;25.38;;;-2.70;34.50;;;;;;5037242;28;20171;-81
2024/01/11 11:00:56;;;;;;;55.92;26.23;;;-2.50;29.10;;;;;;5037230;28;20203;-81
2024/01/11 11:03:28;;;;;;;59.55;26.38;;;-2.40;23.60;;;;;;5037364;28;20626;-81
2024/01/11 11:05:57;;;;;;;59.65;25.60;;;-2.40;17.30;;;;;;5019101;28;20173;-79
2024/01/11 11:08:24;;;;;;;58.58;26.73;;;-2.40;17.40;;;;;;5037168;28;20203;-81
2024/01/11 11:10:54;;;;;;;62.22;28.20;;;-2.20;16.00;;;;;;5036953;28;20168;-80
2024/01/11 11:13:21;;;;;;;63.85;26.10;;;-2.20;14.60;;;;;;5037242;28;20316;-81
2024/01/11 11:15:51;;;;;;;59.13;27.52;;;-2.00;10.30;;;;;;5037641;28;20648;-81
2024/01/11 11:18:18;;;;;;;71.68;27.55;;;-2.00;6.70;;;;;;5037216;28;20158;-81
2024/01/11 11:20:47;;;;;;;60.80;26.67;;;-2.00;2.30;;;;;;5036697;28;20169;-81
2024/01/11 11:23:17;;;;;;;67.95;29.52;;;-2.00;2.70;;;;;;5036567;28;20297;-81
2024/01/11 11:25:44;;;;;;;58.45;27.65;;;-1.90;5.60;;;;;;5018327;28;20178;-80
2024/01/11 11:28:14;;;;;;;67.95;30.95;;;-1.80;2.70;;;;;;5036267;28;20189;-80
2024/01/11 11:30:42;;;;;;;59.53;26.92;;;-1.70;1.00;;;;;;5035973;28;20244;-81
2024/01/11 11:33:22;;;;;;;67.32;31.42;;;-1.60;1.00;;;;;;5035920;28;20169;-80
2024/01/11 11:35:51;;;;;;;61.22;27.02;;;-1.70;1.00;;;;;;5018494;28;20535;-81
2024/01/11 11:38:22;;;;;;;72.65;31.05;;;-1.50;1.00;;;;;;5036543;28;20511;-80
2024/01/11 11:40:49;;;;;;;62.00;29.33;;;-1.40;1.00;;;;;;5018183;28;20257;-80
2024/01/11 11:43:19;;;;;;;73.97;28.10;;;-1.40;1.00;;;;;;5035352;28;20168;-79
2024/01/11 11:45:49;;;;;;;65.93;30.98;;;-1.30;1.00;;;;;;5016897;28;20173;-81
2024/01/11 11:48:30;;;;;;;66.68;28.77;;;-1.30;1.00;;;;;;5035148;28;20181;-79
2024/01/11 11:51:09;;;;;;;61.38;29.77;;;-1.30;1.00;;;;;;5017788;28;20177;-79
2024/01/11 11:53:36;;;;;;;60.88;26.95;;;-1.20;1.00;;;;;;5035744;28;20162;-79
2024/01/11 11:56:02;;;;;;;61.45;29.25;;;-1.20;1.00;;;;;;5035133;28;20236;-81
2024/01/11 11:58:33;;;;;;;62.35;30.30;;;-1.30;1.00;;;;;;5035084;28;20224;-80
2024/01/11 12:01:00;;;;;;;54.28;27.88;;;-1.30;1.00;;;;;;5017584;28;20658;-79
2024/01/11 12:03:30;;;;;;;58.10;27.52;;;-1.30;1.00;;;;;;5035584;28;20253;-79
2024/01/11 12:05:57;;;;;;;59.65;29.48;;;-1.20;1.00;;;;;;5035198;28;20313;-79
2024/01/11 12:08:23;;;;;;;63.20;29.00;;;-1.30;1.00;;;;;;5017457;28;20233;-80
2024/01/11 12:10:49;;;;;;;64.53;28.37;;;-1.40;1.00;;;;;;5035121;28;20308;-80
2024/01/11 12:13:14;;;;;;;60.80;28.67;;;-1.50;1.00;;;;;;5035268;28;20170;-79
2024/01/11 12:15:41;;;;;;;58.60;28.43;;;-1.50;1.00;;;;;;5017599;28;20460;-80
2024/01/11 12:18:07;;;;;;;65.22;27.20;;;-1.40;1.00;;;;;;5017389;28;20503;-79
2024/01/11 12:20:33;;;;;;;56.80;26.60;;;-1.40;1.00;;;;;;5035601;28;20201;-79
2024/01/11 12:22:59;;;;;;;67.80;28.88;;;-1.30;1.00;;;;;;5018169;28;20173;-78
2024/01/11 12:25:26;;;;;;;66.43;28.50;;;-1.30;1.00;;;;;;5035222;28;20188;-80
2024/01/11 12:27:52;;;;;;;68.25;27.85;;;-1.20;1.00;;;;;;5035518;28;20905;-80